Bookmark and Share
Track history (hours):
 

Drifting buoy 41936

Last reported at 2014-Apr-18 06:00 UTC. Time now 2014-Apr-18 08:18 UTC.
Position N 28°35' W 070°55'.

Barometer 1021.5 mb
Water temperature 22.7 ° C

NotesDate/timePositionNaut miles runAvg speedWind from/ knotsBaromVisibWave heightAir tempDewpointWater temp
2014-Apr-18 06:00N 28°35' W 070°55'0 0.0 1021.5 22.7
2014-Apr-18 05:00N 28°35' W 070°55'1 0.3 1021.4 22.7
2014-Apr-18 03:00N 28°36' W 070°55'1 0.6 1022.4 22.9
2014-Apr-18 02:00N 28°36' W 070°54'1 0.6 1022.8 23.0
2014-Apr-18 01:00N 28°36' W 070°55'1 0.6 1022.8 23.1
2014-Apr-18 00:00N 28°36' W 070°55'0 0.1 1022.6 23.1
2014-Apr-17 22:00N 28°36' W 070°55'0 0.0 1022.1 23.2
2014-Apr-17 21:00N 28°36' W 070°55'1 0.9 1022.1 23.4
2014-Apr-17 20:00N 28°37' W 070°54'0 0.0 1022.0 23.3
2014-Apr-17 19:00N 28°37' W 070°54'1 0.3 1022.2 23.3
2014-Apr-17 17:00N 28°38' W 070°54'1 0.5 1022.9 23.2
2014-Apr-17 14:00N 28°39' W 070°54'0 0.5 1022.8 22.8
2014-Apr-17 13:00N 28°39' W 070°54'0 0.0 1021.9 22.7
2014-Apr-17 12:00N 28°39' W 070°54'0 0.4 1021.7 22.6
2014-Apr-17 11:00N 28°40' W 070°54'1 0.6 1020.9 22.6
2014-Apr-17 10:00N 28°40' W 070°55'0 0.2 1019.6 -0.1
2014-Apr-17 09:00N 28°40' W 070°55'0 0.1 1019.5 22.6
2014-Apr-17 08:00N 28°40' W 070°55'0 0.1 1019.2 22.6
2014-Apr-17 06:00N 28°40' W 070°55'0 0.0 1019.3 22.7
2014-Apr-17 05:00N 28°40' W 070°55'0 0.1 1019.9 22.7
2014-Apr-17 03:00N 28°39' W 070°55'1 0.2 1020.3 22.8
2014-Apr-17 00:00N 28°39' W 070°54'0 0.1 1019.7 23.0
2014-Apr-16 21:00N 28°39' W 070°54'0 0.2 1018.6 23.3
2014-Apr-16 20:00N 28°39' W 070°54'0 0.0 1018.6 23.4
2014-Apr-16 19:00N 28°39' W 070°54'0 0.1 1018.8 23.3
2014-Apr-16 17:00N 28°40' W 070°54'0 0.0 1019.2 23.1
2014-Apr-16 16:00N 28°40' W 070°54'0 0.2 1019.2 22.9
2014-Apr-16 15:00N 28°39' W 070°54'1 0.7 1019.1 22.7
2014-Apr-16 13:00N 28°38' W 070°55'0 0.0 1018.1 22.5
2014-Apr-16 12:00N 28°38' W 070°55'0 0.0 1017.5 22.4
2014-Apr-16 11:00N 28°38' W 070°55'0 0.4 1016.8 22.4
2014-Apr-16 10:00N 28°38' W 070°55'0 0.2 1015.8 22.4
2014-Apr-16 09:00N 28°38' W 070°55'0 0.1 1015.5 22.5
2014-Apr-16 06:00N 28°38' W 070°55'1 0.3 1016.7 22.5
2014-Apr-16 03:00N 28°37' W 070°56'0 0.3 1018.4 22.6
2014-Apr-16 02:00N 28°37' W 070°56'2 1.8 1018.2 22.6
2014-Apr-16 01:00N 28°36' W 070°58'0 0.0 1017.9 22.7
2014-Apr-16 00:00N 28°36' W 070°58'0 0.0 1017.3 22.7
2014-Apr-15 23:00N 28°36' W 070°58'3 1.4 1016.7 22.8
2014-Apr-15 21:00N 28°35' W 071°01'0 0.1 1016.2 22.8
2014-Apr-15 19:00N 28°35' W 071°01'2 1.9 1016.9 22.8
2014-Apr-15 18:00N 28°35' W 071°02'1 0.6 1017.7 22.7
2014-Apr-15 16:00N 28°34' W 071°04'3 1.3 1018.3 22.6
2014-Apr-15 14:00N 28°34' W 071°07'1 0.3 1018.6 22.5
2014-Apr-15 11:00N 28°34' W 071°07'0 0.4 1017.6 22.4
2014-Apr-15 10:00N 28°35' W 071°08'2 1.7 1017.2 22.4
2014-Apr-15 09:00N 28°36' W 071°09'1 1.4 1016.9 22.5
2014-Apr-15 08:00N 28°36' W 071°11'0 0.0 1016.8 22.5
2014-Apr-15 07:00N 28°36' W 071°11'0 0.0 1017.7 22.5
2014-Apr-15 06:00N 28°36' W 071°11'3 2.6 1018.1 22.4
2014-Apr-15 05:00N 28°37' W 071°14'0 0.2 1018.5 22.4
2014-Apr-15 03:00N 28°37' W 071°14'1 0.9 1019.7 22.4
2014-Apr-15 02:00N 28°38' W 071°15'0 0.5 1019.6 22.4
2014-Apr-15 01:00N 28°38' W 071°14'2 0.7 1019.6 22.4
2014-Apr-14 22:00N 28°38' W 071°17'1 1.4 1018.9 22.5
2014-Apr-14 21:00N 28°38' W 071°18'0 0.0 1018.8 22.5
2014-Apr-14 20:00N 28°38' W 071°18'0 0.4 1019.0 22.4
2014-Apr-14 19:00N 28°38' W 071°18'0 0.0 1019.5 22.4
2014-Apr-14 18:00N 28°38' W 071°18'2 1.0 1020.1 22.4
2014-Apr-14 16:00N 28°37' W 071°20'0 0.2 1020.7 22.3
2014-Apr-14 15:00N 28°37' W 071°20'2 1.9 1021.2 22.3
2014-Apr-14 14:00N 28°36' W 071°22'0 0.0 1020.9 22.3
2014-Apr-14 13:00N 28°36' W 071°22'1 0.6 1020.7 22.2
2014-Apr-14 11:00N 28°36' W 071°21'0 0.3 1019.8 22.2
2014-Apr-14 10:00N 28°37' W 071°21'1 0.7 1019.5 22.2
2014-Apr-14 09:00N 28°37' W 071°21'2 1.9 1019.7 22.2
2014-Apr-14 08:00N 28°37' W 071°19'4 0.8 1019.6 22.2
2014-Apr-14 03:00N 28°38' W 071°23'1 1.4 1021.4 22.3
2014-Apr-14 02:00N 28°38' W 071°25'1 1.0 1021.5 22.3
2014-Apr-14 01:00N 28°37' W 071°25'0 0.1 1021.3 22.3
2014-Apr-13 23:00N 28°37' W 071°25'2 0.6 1020.6 22.3
2014-Apr-13 20:00N 28°35' W 071°27'2 0.3 1020.7 22.3
2014-Apr-13 13:00N 28°33' W 071°27'2 0.9 1022.4 22.3
2014-Apr-13 11:00N 28°31' W 071°27'0 0.4 1021.4 22.3
2014-Apr-13 10:00N 28°32' W 071°27'0 0.3 1020.6 22.4
2014-Apr-13 09:00N 28°32' W 071°27'0 0.0 1020.1 22.4
2014-Apr-13 08:00N 28°32' W 071°27'3 3.0 1020.0 22.4
2014-Apr-13 07:00N 28°31' W 071°30'1 0.1 1020.2 22.4
2014-Apr-13 03:00N 28°31' W 071°30'1 1.5 1021.6 22.5
2014-Apr-13 02:00N 28°31' W 071°32'0 0.0 1021.7 22.5
2014-Apr-13 01:00N 28°31' W 071°32'2 2.0 1021.6 22.5
2014-Apr-13 00:00N 28°29' W 071°33'1 1.0 1021.1 22.5
2014-Apr-12 23:00N 28°29' W 071°34'1 0.5 1020.8 22.5
2014-Apr-12 21:00N 28°29' W 071°33'3 2.8 1021.0 22.5
2014-Apr-12 20:00N 28°28' W 071°36'1 0.5 1021.4 22.6
2014-Apr-12 18:00N 28°27' W 071°36'2 2.2 1022.2 22.5
2014-Apr-12 17:00N 28°25' W 071°38'0 0.0 1022.8 22.5
2014-Apr-12 16:00N 28°25' W 071°38'1 1.1 1023.1 22.5
2014-Apr-12 15:00N 28°24' W 071°39'0 0.3 1023.2 22.5
2014-Apr-12 14:00N 28°24' W 071°39'2 1.2 1023.2 22.4
2014-Apr-12 12:00N 28°22' W 071°40'0 0.2 1022.2 22.4
2014-Apr-12 10:00N 28°22' W 071°40'1 0.9 1021.4 22.4
2014-Apr-12 09:00N 28°21' W 071°40'0 0.2 1021.1 22.4
2014-Apr-12 08:00N 28°22' W 071°41'3 2.7 1020.9 22.4
2014-Apr-12 07:00N 28°22' W 071°44'3 2.8 1021.1 22.4
2014-Apr-12 06:00N 28°21' W 071°41'3 0.9 1021.8 22.4
2014-Apr-12 03:00N 28°22' W 071°44'1 1.0 1023.7 22.4
2014-Apr-12 02:00N 28°21' W 071°45'2 2.5 1023.5 22.5
2014-Apr-12 01:00N 28°21' W 071°48'0 0.0 1023.4 22.5
2014-Apr-12 00:00N 28°21' W 071°48'2 1.8 1023.1 22.5
2014-Apr-11 23:00N 28°20' W 071°49'4 1.2 1022.8 22.5
2014-Apr-11 20:00N 28°18' W 071°52'3 1.5 1023.2 22.5
2014-Apr-11 18:00N 28°15' W 071°54'   1024.9 22.5

Dump ship's entire track history

sailing weather and tide predictions

Buoy 41936